sensor_id;sensor_type;location;lat;lon;timestamp;temperature;humidity
19680;DHT22;9989;48.962;9.182;2023-10-13T00:01:48;17.90;99.90
19680;DHT22;9989;48.962;9.182;2023-10-13T00:04:17;17.90;99.90
19680;DHT22;9989;48.962;9.182;2023-10-13T00:06:42;17.90;99.90
19680;DHT22;9989;48.962;9.182;2023-10-13T00:09:08;17.90;99.90
19680;DHT22;9989;48.962;9.182;2023-10-13T00:11:41;17.90;99.90
19680;DHT22;9989;48.962;9.182;2023-10-13T00:14:11;17.80;99.90
19680;DHT22;9989;48.962;9.182;2023-10-13T00:16:36;17.80;99.90
19680;DHT22;9989;48.962;9.182;2023-10-13T00:19:05;17.80;99.90
19680;DHT22;9989;48.962;9.182;2023-10-13T00:21:31;17.70;99.90
19680;DHT22;9989;48.962;9.182;2023-10-13T00:23:57;17.70;99.90
19680;DHT22;9989;48.962;9.182;2023-10-13T00:26:27;17.70;99.90
19680;DHT22;9989;48.962;9.182;2023-10-13T00:28:58;17.70;99.90
19680;DHT22;9989;48.962;9.182;2023-10-13T00:31:37;17.60;99.90
19680;DHT22;9989;48.962;9.182;2023-10-13T00:34:04;17.60;99.90
19680;DHT22;9989;48.962;9.182;2023-10-13T00:36:42;17.50;99.90
19680;DHT22;9989;48.962;9.182;2023-10-13T00:39:15;17.50;99.90
19680;DHT22;9989;48.962;9.182;2023-10-13T00:41:43;17.40;99.90
19680;DHT22;9989;48.962;9.182;2023-10-13T00:44:20;17.40;99.90
19680;DHT22;9989;48.962;9.182;2023-10-13T00:47:07;17.30;99.90
19680;DHT22;9989;48.962;9.182;2023-10-13T00:49:36;17.30;99.90
19680;DHT22;9989;48.962;9.182;2023-10-13T00:52:08;17.30;99.90
19680;DHT22;9989;48.962;9.182;2023-10-13T00:54:37;17.30;99.90
19680;DHT22;9989;48.962;9.182;2023-10-13T00:57:03;17.20;99.90
19680;DHT22;9989;48.962;9.182;2023-10-13T00:59:49;17.20;99.90
19680;DHT22;9989;48.962;9.182;2023-10-13T01:02:16;17.20;99.90
19680;DHT22;9989;48.962;9.182;2023-10-13T01:05:01;17.10;99.90
19680;DHT22;9989;48.962;9.182;2023-10-13T01:07:27;17.10;99.90
19680;DHT22;9989;48.962;9.182;2023-10-13T01:09:53;17.10;99.90
19680;DHT22;9989;48.962;9.182;2023-10-13T01:12:20;17.10;99.90
19680;DHT22;9989;48.962;9.182;2023-10-13T01:14:45;17.10;99.90
19680;DHT22;9989;48.962;9.182;2023-10-13T01:17:11;17.10;99.90
19680;DHT22;9989;48.962;9.182;2023-10-13T01:19:37;17.10;99.90
19680;DHT22;9989;48.962;9.182;2023-10-13T01:22:09;17.00;99.90
19680;DHT22;9989;48.962;9.182;2023-10-13T01:24:35;17.00;99.90
19680;DHT22;9989;48.962;9.182;2023-10-13T01:27:05;17.00;99.90
19680;DHT22;9989;48.962;9.182;2023-10-13T01:29:43;17.00;99.90
19680;DHT22;9989;48.962;9.182;2023-10-13T01:32:18;17.00;99.90
19680;DHT22;9989;48.962;9.182;2023-10-13T01:34:44;17.00;99.90
19680;DHT22;9989;48.962;9.182;2023-10-13T01:37:13;16.90;99.90
19680;DHT22;9989;48.962;9.182;2023-10-13T01:39:41;16.90;99.90
19680;DHT22;9989;48.962;9.182;2023-10-13T01:42:07;16.90;99.90
19680;DHT22;9989;48.962;9.182;2023-10-13T01:44:33;16.80;99.90
19680;DHT22;9989;48.962;9.182;2023-10-13T01:46:59;16.80;99.90
19680;DHT22;9989;48.962;9.182;2023-10-13T01:49:34;16.80;99.90
19680;DHT22;9989;48.962;9.182;2023-10-13T01:52:12;16.70;99.90
19680;DHT22;9989;48.962;9.182;2023-10-13T01:54:41;16.70;99.90
19680;DHT22;9989;48.962;9.182;2023-10-13T01:57:13;16.70;99.90
19680;DHT22;9989;48.962;9.182;2023-10-13T01:59:48;16.60;99.90
19680;DHT22;9989;48.962;9.182;2023-10-13T02:02:14;16.60;99.90
19680;DHT22;9989;48.962;9.182;2023-10-13T02:04:40;16.60;99.90
19680;DHT22;9989;48.962;9.182;2023-10-13T02:07:20;16.50;99.90
19680;DHT22;9989;48.962;9.182;2023-10-13T02:09:46;16.50;99.90
19680;DHT22;9989;48.962;9.182;2023-10-13T02:12:12;16.50;99.90
19680;DHT22;9989;48.962;9.182;2023-10-13T02:14:39;16.40;99.90
19680;DHT22;9989;48.962;9.182;2023-10-13T02:17:07;16.40;99.90
19680;DHT22;9989;48.962;9.182;2023-10-13T02:19:42;16.40;99.90
19680;DHT22;9989;48.962;9.182;2023-10-13T02:22:14;16.30;99.90
19680;DHT22;9989;48.962;9.182;2023-10-13T02:25:06;16.30;99.90
19680;DHT22;9989;48.962;9.182;2023-10-13T02:27:35;16.30;99.90
19680;DHT22;9989;48.962;9.182;2023-10-13T02:30:07;16.30;99.90
19680;DHT22;9989;48.962;9.182;2023-10-13T02:32:39;16.20;99.90
19680;DHT22;9989;48.962;9.182;2023-10-13T02:35:09;16.20;99.90
19680;DHT22;9989;48.962;9.182;2023-10-13T02:37:40;16.20;99.90
19680;DHT22;9989;48.962;9.182;2023-10-13T02:40:12;16.20;99.90
19680;DHT22;9989;48.962;9.182;2023-10-13T02:42:38;16.10;99.90
19680;DHT22;9989;48.962;9.182;2023-10-13T02:45:04;16.10;99.90
19680;DHT22;9989;48.962;9.182;2023-10-13T02:47:31;16.10;99.90
19680;DHT22;9989;48.962;9.182;2023-10-13T02:49:57;16.10;99.90
19680;DHT22;9989;48.962;9.182;2023-10-13T02:52:26;16.10;99.90
19680;DHT22;9989;48.962;9.182;2023-10-13T02:54:52;16.10;99.90
19680;DHT22;9989;48.962;9.182;2023-10-13T02:57:18;16.10;99.90
19680;DHT22;9989;48.962;9.182;2023-10-13T02:59:45;16.10;99.90
19680;DHT22;9989;48.962;9.182;2023-10-13T03:02:14;16.10;99.90
19680;DHT22;9989;48.962;9.182;2023-10-13T03:04:49;16.00;99.90
19680;DHT22;9989;48.962;9.182;2023-10-13T03:07:15;16.00;99.90
19680;DHT22;9989;48.962;9.182;2023-10-13T03:09:44;16.00;99.90
19680;DHT22;9989;48.962;9.182;2023-10-13T03:12:16;16.00;99.90
19680;DHT22;9989;48.962;9.182;2023-10-13T03:14:43;15.90;99.90
19680;DHT22;9989;48.962;9.182;2023-10-13T03:17:13;15.90;99.90
19680;DHT22;9989;48.962;9.182;2023-10-13T03:19:46;15.90;99.90
19680;DHT22;9989;48.962;9.182;2023-10-13T03:22:15;15.80;99.90
19680;DHT22;9989;48.962;9.182;2023-10-13T03:24:45;15.80;99.90
19680;DHT22;9989;48.962;9.182;2023-10-13T03:27:18;15.80;99.90
19680;DHT22;9989;48.962;9.182;2023-10-13T03:30:04;15.80;99.90
19680;DHT22;9989;48.962;9.182;2023-10-13T03:32:35;15.70;99.90
19680;DHT22;9989;48.962;9.182;2023-10-13T03:35:08;15.70;99.90
19680;DHT22;9989;48.962;9.182;2023-10-13T03:37:49;15.70;99.90
19680;DHT22;9989;48.962;9.182;2023-10-13T03:40:14;15.70;99.90
19680;DHT22;9989;48.962;9.182;2023-10-13T03:45:34;15.60;99.90
19680;DHT22;9989;48.962;9.182;2023-10-13T03:48:09;15.60;99.90
19680;DHT22;9989;48.962;9.182;2023-10-13T03:50:39;15.60;99.90
19680;DHT22;9989;48.962;9.182;2023-10-13T03:53:23;15.50;99.90
19680;DHT22;9989;48.962;9.182;2023-10-13T03:55:51;15.50;99.90
19680;DHT22;9989;48.962;9.182;2023-10-13T03:58:33;15.50;99.90
19680;DHT22;9989;48.962;9.182;2023-10-13T04:01:00;15.40;99.90
19680;DHT22;9989;48.962;9.182;2023-10-13T04:03:26;15.40;99.90
19680;DHT22;9989;48.962;9.182;2023-10-13T04:05:58;15.30;99.90
19680;DHT22;9989;48.962;9.182;2023-10-13T04:08:32;15.30;99.90
19680;DHT22;9989;48.962;9.182;2023-10-13T04:11:32;15.30;99.90
19680;DHT22;9989;48.962;9.182;2023-10-13T04:14:28;15.30;99.90
19680;DHT22;9989;48.962;9.182;2023-10-13T04:17:12;15.30;99.90
19680;DHT22;9989;48.962;9.182;2023-10-13T04:19:41;15.20;99.90
19680;DHT22;9989;48.962;9.182;2023-10-13T04:22:29;15.20;99.90
19680;DHT22;9989;48.962;9.182;2023-10-13T04:25:13;15.20;99.90
19680;DHT22;9989;48.962;9.182;2023-10-13T04:27:59;15.10;99.90
19680;DHT22;9989;48.962;9.182;2023-10-13T04:30:49;15.10;99.90
19680;DHT22;9989;48.962;9.182;2023-10-13T04:33:25;15.10;99.90
19680;DHT22;9989;48.962;9.182;2023-10-13T04:36:13;15.10;99.90
19680;DHT22;9989;48.962;9.182;2023-10-13T04:38:52;15.10;99.90
19680;DHT22;9989;48.962;9.182;2023-10-13T04:44:00;15.00;99.90
19680;DHT22;9989;48.962;9.182;2023-10-13T04:46:45;15.00;99.90
19680;DHT22;9989;48.962;9.182;2023-10-13T04:49:13;15.00;99.90
19680;DHT22;9989;48.962;9.182;2023-10-13T04:51:57;15.00;99.90
19680;DHT22;9989;48.962;9.182;2023-10-13T04:54:37;15.00;99.90
19680;DHT22;9989;48.962;9.182;2023-10-13T04:57:21;15.00;99.90
19680;DHT22;9989;48.962;9.182;2023-10-13T05:00:06;15.00;99.90
19680;DHT22;9989;48.962;9.182;2023-10-13T05:02:42;15.00;99.90
19680;DHT22;9989;48.962;9.182;2023-10-13T05:05:26;14.90;99.90
19680;DHT22;9989;48.962;9.182;2023-10-13T05:08:11;15.00;99.90
19680;DHT22;9989;48.962;9.182;2023-10-13T05:10:55;14.90;99.90
19680;DHT22;9989;48.962;9.182;2023-10-13T05:13:39;14.90;99.90
19680;DHT22;9989;48.962;9.182;2023-10-13T05:16:23;14.90;99.90
19680;DHT22;9989;48.962;9.182;2023-10-13T05:19:07;14.90;99.90
19680;DHT22;9989;48.962;9.182;2023-10-13T05:21:52;14.80;99.90
19680;DHT22;9989;48.962;9.182;2023-10-13T05:24:36;14.90;99.90
19680;DHT22;9989;48.962;9.182;2023-10-13T05:27:20;14.80;99.90
19680;DHT22;9989;48.962;9.182;2023-10-13T05:30:06;14.80;99.90
19680;DHT22;9989;48.962;9.182;2023-10-13T05:32:50;14.80;99.90
19680;DHT22;9989;48.962;9.182;2023-10-13T05:35:34;14.80;99.90
19680;DHT22;9989;48.962;9.182;2023-10-13T05:38:18;14.90;99.90
19680;DHT22;9989;48.962;9.182;2023-10-13T05:41:04;14.90;99.90
19680;DHT22;9989;48.962;9.182;2023-10-13T05:43:48;14.80;99.90
19680;DHT22;9989;48.962;9.182;2023-10-13T05:46:33;14.80;99.90
19680;DHT22;9989;48.962;9.182;2023-10-13T05:49:08;14.80;99.90
19680;DHT22;9989;48.962;9.182;2023-10-13T05:51:34;14.90;99.90
19680;DHT22;9989;48.962;9.182;2023-10-13T05:54:12;14.90;99.90
19680;DHT22;9989;48.962;9.182;2023-10-13T05:56:39;14.90;99.90
19680;DHT22;9989;48.962;9.182;2023-10-13T05:59:23;14.90;99.90
19680;DHT22;9989;48.962;9.182;2023-10-13T06:02:07;15.00;99.90
19680;DHT22;9989;48.962;9.182;2023-10-13T06:04:51;15.00;99.90
19680;DHT22;9989;48.962;9.182;2023-10-13T06:07:35;15.00;99.90
19680;DHT22;9989;48.962;9.182;2023-10-13T06:10:19;15.10;99.90
19680;DHT22;9989;48.962;9.182;2023-10-13T06:13:03;15.10;99.90
19680;DHT22;9989;48.962;9.182;2023-10-13T06:15:47;15.10;99.90
19680;DHT22;9989;48.962;9.182;2023-10-13T06:18:31;15.20;99.90
19680;DHT22;9989;48.962;9.182;2023-10-13T06:21:15;15.20;99.90
19680;DHT22;9989;48.962;9.182;2023-10-13T06:23:59;15.30;99.90
19680;DHT22;9989;48.962;9.182;2023-10-13T06:26:43;15.40;99.90
19680;DHT22;9989;48.962;9.182;2023-10-13T06:29:27;15.40;99.90
19680;DHT22;9989;48.962;9.182;2023-10-13T06:31:53;15.50;99.90
19680;DHT22;9989;48.962;9.182;2023-10-13T06:34:22;15.50;99.90
19680;DHT22;9989;48.962;9.182;2023-10-13T06:37:06;15.60;99.90
19680;DHT22;9989;48.962;9.182;2023-10-13T06:39:50;15.70;99.90
19680;DHT22;9989;48.962;9.182;2023-10-13T06:42:16;15.70;99.90
19680;DHT22;9989;48.962;9.182;2023-10-13T06:44:47;15.80;99.90
19680;DHT22;9989;48.962;9.182;2023-10-13T06:47:13;15.90;99.90
19680;DHT22;9989;48.962;9.182;2023-10-13T06:49:42;15.90;99.90
19680;DHT22;9989;48.962;9.182;2023-10-13T06:52:09;16.00;99.90
19680;DHT22;9989;48.962;9.182;2023-10-13T06:54:36;16.10;99.90
19680;DHT22;9989;48.962;9.182;2023-10-13T06:57:04;16.20;99.90
19680;DHT22;9989;48.962;9.182;2023-10-13T06:59:33;16.30;99.90
19680;DHT22;9989;48.962;9.182;2023-10-13T07:02:00;16.40;99.90
19680;DHT22;9989;48.962;9.182;2023-10-13T07:04:32;16.50;99.90
19680;DHT22;9989;48.962;9.182;2023-10-13T07:06:57;16.60;99.90
19680;DHT22;9989;48.962;9.182;2023-10-13T07:09:26;16.70;99.90
19680;DHT22;9989;48.962;9.182;2023-10-13T07:12:04;16.90;99.90
19680;DHT22;9989;48.962;9.182;2023-10-13T07:14:45;17.10;99.90
19680;DHT22;9989;48.962;9.182;2023-10-13T07:17:17;17.30;99.90
19680;DHT22;9989;48.962;9.182;2023-10-13T07:19:52;17.50;99.90
19680;DHT22;9989;48.962;9.182;2023-10-13T07:22:36;17.70;99.90
19680;DHT22;9989;48.962;9.182;2023-10-13T07:25:05;18.00;99.90
19680;DHT22;9989;48.962;9.182;2023-10-13T07:27:32;18.20;99.90
19680;DHT22;9989;48.962;9.182;2023-10-13T07:30:01;18.50;99.90
19680;DHT22;9989;48.962;9.182;2023-10-13T07:32:53;18.80;99.90
19680;DHT22;9989;48.962;9.182;2023-10-13T07:35:23;19.10;99.90
19680;DHT22;9989;48.962;9.182;2023-10-13T07:37:50;19.40;99.90
19680;DHT22;9989;48.962;9.182;2023-10-13T07:40:19;19.70;99.90
19680;DHT22;9989;48.962;9.182;2023-10-13T07:43:05;20.20;99.90
19680;DHT22;9989;48.962;9.182;2023-10-13T07:45:39;21.10;99.90
19680;DHT22;9989;48.962;9.182;2023-10-13T07:48:07;22.10;99.90
19680;DHT22;9989;48.962;9.182;2023-10-13T07:50:46;23.20;99.90
19680;DHT22;9989;48.962;9.182;2023-10-13T07:53:12;24.00;99.90
19680;DHT22;9989;48.962;9.182;2023-10-13T07:55:50;24.70;99.90
19680;DHT22;9989;48.962;9.182;2023-10-13T07:58:22;25.20;98.70
19680;DHT22;9989;48.962;9.182;2023-10-13T08:00:51;25.60;96.50
19680;DHT22;9989;48.962;9.182;2023-10-13T08:03:35;26.00;94.60
19680;DHT22;9989;48.962;9.182;2023-10-13T08:06:09;26.50;92.80
19680;DHT22;9989;48.962;9.182;2023-10-13T08:08:38;27.40;91.30
19680;DHT22;9989;48.962;9.182;2023-10-13T08:11:14;28.50;87.60
19680;DHT22;9989;48.962;9.182;2023-10-13T08:13:53;29.70;82.20
19680;DHT22;9989;48.962;9.182;2023-10-13T08:16:28;30.90;76.20
19680;DHT22;9989;48.962;9.182;2023-10-13T08:19:14;32.00;70.80
19680;DHT22;9989;48.962;9.182;2023-10-13T08:21:44;33.00;65.70
19680;DHT22;9989;48.962;9.182;2023-10-13T08:24:39;33.80;62.10
19680;DHT22;9989;48.962;9.182;2023-10-13T08:27:06;34.90;58.90
19680;DHT22;9989;48.962;9.182;2023-10-13T08:29:51;35.60;55.90
19680;DHT22;9989;48.962;9.182;2023-10-13T08:32:22;36.30;53.80
19680;DHT22;9989;48.962;9.182;2023-10-13T08:34:58;36.70;52.20
19680;DHT22;9989;48.962;9.182;2023-10-13T08:37:25;36.80;50.80
19680;DHT22;9989;48.962;9.182;2023-10-13T08:39:56;36.80;50.30
19680;DHT22;9989;48.962;9.182;2023-10-13T08:42:30;36.80;50.00
19680;DHT22;9989;48.962;9.182;2023-10-13T08:45:16;37.10;49.10
19680;DHT22;9989;48.962;9.182;2023-10-13T08:47:58;37.60;48.20
19680;DHT22;9989;48.962;9.182;2023-10-13T08:50:34;38.10;47.10
19680;DHT22;9989;48.962;9.182;2023-10-13T08:53:35;38.60;46.20
19680;DHT22;9989;48.962;9.182;2023-10-13T08:56:12;39.30;45.10
19680;DHT22;9989;48.962;9.182;2023-10-13T08:58:45;40.10;43.50
19680;DHT22;9989;48.962;9.182;2023-10-13T09:01:27;40.60;42.20
19680;DHT22;9989;48.962;9.182;2023-10-13T09:04:15;41.00;41.60
19680;DHT22;9989;48.962;9.182;2023-10-13T09:06:45;41.60;41.40
19680;DHT22;9989;48.962;9.182;2023-10-13T09:09:29;42.00;39.90
19680;DHT22;9989;48.962;9.182;2023-10-13T09:14:40;42.90;37.80
19680;DHT22;9989;48.962;9.182;2023-10-13T09:17:25;42.80;37.50
19680;DHT22;9989;48.962;9.182;2023-10-13T09:20:09;42.50;37.40
19680;DHT22;9989;48.962;9.182;2023-10-13T09:22:52;42.50;37.00
19680;DHT22;9989;48.962;9.182;2023-10-13T09:25:30;42.80;36.80
19680;DHT22;9989;48.962;9.182;2023-10-13T09:30:47;44.00;35.60
19680;DHT22;9989;48.962;9.182;2023-10-13T09:33:13;44.60;34.90
19680;DHT22;9989;48.962;9.182;2023-10-13T09:35:44;44.80;33.80
19680;DHT22;9989;48.962;9.182;2023-10-13T09:38:17;44.80;33.40
19680;DHT22;9989;48.962;9.182;2023-10-13T09:40:44;45.10;32.40
19680;DHT22;9989;48.962;9.182;2023-10-13T09:43:19;45.30;32.70
19680;DHT22;9989;48.962;9.182;2023-10-13T09:45:48;45.50;31.70
19680;DHT22;9989;48.962;9.182;2023-10-13T09:48:45;45.90;31.10
19680;DHT22;9989;48.962;9.182;2023-10-13T09:51:29;46.00;31.10
19680;DHT22;9989;48.962;9.182;2023-10-13T09:54:18;46.00;30.00
19680;DHT22;9989;48.962;9.182;2023-10-13T09:56:49;45.80;29.70
19680;DHT22;9989;48.962;9.182;2023-10-13T09:59:31;45.70;30.10
19680;DHT22;9989;48.962;9.182;2023-10-13T10:02:04;45.90;30.00
19680;DHT22;9989;48.962;9.182;2023-10-13T10:04:37;46.20;30.00
19680;DHT22;9989;48.962;9.182;2023-10-13T10:07:10;46.60;29.60
19680;DHT22;9989;48.962;9.182;2023-10-13T10:09:36;47.00;29.30
19680;DHT22;9989;48.962;9.182;2023-10-13T10:17:42;47.00;28.60
19680;DHT22;9989;48.962;9.182;2023-10-13T10:20:08;47.00;28.40
19680;DHT22;9989;48.962;9.182;2023-10-13T10:22:57;47.20;28.70
19680;DHT22;9989;48.962;9.182;2023-10-13T10:25:32;47.10;28.00
19680;DHT22;9989;48.962;9.182;2023-10-13T10:28:05;47.00;28.50
19680;DHT22;9989;48.962;9.182;2023-10-13T10:30:41;47.30;28.40
19680;DHT22;9989;48.962;9.182;2023-10-13T10:33:10;47.40;28.10
19680;DHT22;9989;48.962;9.182;2023-10-13T10:35:41;46.60;28.20
19680;DHT22;9989;48.962;9.182;2023-10-13T10:38:12;44.70;28.70
19680;DHT22;9989;48.962;9.182;2023-10-13T10:40:54;43.00;29.80
19680;DHT22;9989;48.962;9.182;2023-10-13T10:43:43;41.80;30.90
19680;DHT22;9989;48.962;9.182;2023-10-13T10:46:26;41.50;31.30
19680;DHT22;9989;48.962;9.182;2023-10-13T10:48:53;41.40;31.80
19680;DHT22;9989;48.962;9.182;2023-10-13T10:51:28;41.00;31.90
19680;DHT22;9989;48.962;9.182;2023-10-13T10:53:57;40.70;31.70
19680;DHT22;9989;48.962;9.182;2023-10-13T10:56:25;40.40;32.50
19680;DHT22;9989;48.962;9.182;2023-10-13T10:59:04;40.10;32.50
19680;DHT22;9989;48.962;9.182;2023-10-13T11:01:31;40.00;32.40
19680;DHT22;9989;48.962;9.182;2023-10-13T11:04:05;39.90;32.80
19680;DHT22;9989;48.962;9.182;2023-10-13T11:06:37;40.10;33.10
19680;DHT22;9989;48.962;9.182;2023-10-13T11:09:12;40.40;32.70
19680;DHT22;9989;48.962;9.182;2023-10-13T11:11:47;40.70;32.90
19680;DHT22;9989;48.962;9.182;2023-10-13T11:14:25;40.40;32.50
19680;DHT22;9989;48.962;9.182;2023-10-13T11:16:53;40.30;33.10
19680;DHT22;9989;48.962;9.182;2023-10-13T11:19:22;40.60;32.70
19680;DHT22;9989;48.962;9.182;2023-10-13T11:24:41;41.10;31.80
19680;DHT22;9989;48.962;9.182;2023-10-13T11:27:16;40.70;32.00
19680;DHT22;9989;48.962;9.182;2023-10-13T11:29:46;40.60;32.30
19680;DHT22;9989;48.962;9.182;2023-10-13T11:32:18;40.60;32.20
19680;DHT22;9989;48.962;9.182;2023-10-13T11:34:45;40.80;32.20
19680;DHT22;9989;48.962;9.182;2023-10-13T11:37:11;40.60;32.10
19680;DHT22;9989;48.962;9.182;2023-10-13T11:40:04;40.20;32.70
19680;DHT22;9989;48.962;9.182;2023-10-13T11:42:35;39.80;32.80
19680;DHT22;9989;48.962;9.182;2023-10-13T11:45:01;39.60;33.30
19680;DHT22;9989;48.962;9.182;2023-10-13T11:47:46;39.50;33.50
19680;DHT22;9989;48.962;9.182;2023-10-13T11:50:24;39.40;32.50
19680;DHT22;9989;48.962;9.182;2023-10-13T11:52:58;39.40;33.20
19680;DHT22;9989;48.962;9.182;2023-10-13T11:55:24;39.60;33.20
19680;DHT22;9989;48.962;9.182;2023-10-13T11:57:50;40.00;32.80
19680;DHT22;9989;48.962;9.182;2023-10-13T12:00:16;40.30;33.00
19680;DHT22;9989;48.962;9.182;2023-10-13T12:02:51;40.10;32.20
19680;DHT22;9989;48.962;9.182;2023-10-13T12:05:36;39.90;31.70
19680;DHT22;9989;48.962;9.182;2023-10-13T12:08:21;39.60;32.00
19680;DHT22;9989;48.962;9.182;2023-10-13T12:10:58;39.50;32.00
19680;DHT22;9989;48.962;9.182;2023-10-13T12:13:46;39.60;32.10
19680;DHT22;9989;48.962;9.182;2023-10-13T12:16:12;40.00;31.60
19680;DHT22;9989;48.962;9.182;2023-10-13T12:18:38;40.30;31.20
19680;DHT22;9989;48.962;9.182;2023-10-13T12:21:09;40.60;31.10
19680;DHT22;9989;48.962;9.182;2023-10-13T12:23:38;40.50;30.50
19680;DHT22;9989;48.962;9.182;2023-10-13T12:26:04;40.20;30.40
19680;DHT22;9989;48.962;9.182;2023-10-13T12:28:44;39.80;30.50
19680;DHT22;9989;48.962;9.182;2023-10-13T12:31:17;39.80;31.60
19680;DHT22;9989;48.962;9.182;2023-10-13T12:33:43;39.50;30.90
19680;DHT22;9989;48.962;9.182;2023-10-13T12:36:12;39.30;31.30
19680;DHT22;9989;48.962;9.182;2023-10-13T12:38:47;39.40;31.40
19680;DHT22;9989;48.962;9.182;2023-10-13T12:41:17;39.40;31.20
19680;DHT22;9989;48.962;9.182;2023-10-13T12:44:03;39.50;30.90
19680;DHT22;9989;48.962;9.182;2023-10-13T12:46:47;39.40;30.70
19680;DHT22;9989;48.962;9.182;2023-10-13T12:49:35;39.30;31.10
19680;DHT22;9989;48.962;9.182;2023-10-13T12:52:04;39.30;31.10
19680;DHT22;9989;48.962;9.182;2023-10-13T12:54:31;39.30;31.50
19680;DHT22;9989;48.962;9.182;2023-10-13T12:57:04;39.40;31.60
19680;DHT22;9989;48.962;9.182;2023-10-13T12:59:34;39.50;31.50
19680;DHT22;9989;48.962;9.182;2023-10-13T13:02:00;39.10;32.30
19680;DHT22;9989;48.962;9.182;2023-10-13T13:04:32;38.40;33.20
19680;DHT22;9989;48.962;9.182;2023-10-13T13:07:02;37.70;33.60
19680;DHT22;9989;48.962;9.182;2023-10-13T13:09:31;36.80;34.20
19680;DHT22;9989;48.962;9.182;2023-10-13T13:11:57;35.80;35.30
19680;DHT22;9989;48.962;9.182;2023-10-13T13:14:24;35.20;36.00
19680;DHT22;9989;48.962;9.182;2023-10-13T13:16:56;34.60;36.60
19680;DHT22;9989;48.962;9.182;2023-10-13T13:19:31;34.40;37.50
19680;DHT22;9989;48.962;9.182;2023-10-13T13:21:59;35.00;36.90
19680;DHT22;9989;48.962;9.182;2023-10-13T13:24:25;35.40;35.30
19680;DHT22;9989;48.962;9.182;2023-10-13T13:26:58;36.10;34.60
19680;DHT22;9989;48.962;9.182;2023-10-13T13:29:30;36.50;33.70
19680;DHT22;9989;48.962;9.182;2023-10-13T13:31:56;36.70;33.70
19680;DHT22;9989;48.962;9.182;2023-10-13T13:34:22;36.90;33.50
19680;DHT22;9989;48.962;9.182;2023-10-13T13:36:48;36.70;33.40
19680;DHT22;9989;48.962;9.182;2023-10-13T13:39:19;36.60;33.80
19680;DHT22;9989;48.962;9.182;2023-10-13T13:41:54;37.00;33.80
19680;DHT22;9989;48.962;9.182;2023-10-13T13:44:23;37.20;32.80
19680;DHT22;9989;48.962;9.182;2023-10-13T13:46:56;37.20;32.70
19680;DHT22;9989;48.962;9.182;2023-10-13T13:49:22;37.50;32.80
19680;DHT22;9989;48.962;9.182;2023-10-13T13:51:56;37.50;32.50
19680;DHT22;9989;48.962;9.182;2023-10-13T13:54:21;37.30;32.70
19680;DHT22;9989;48.962;9.182;2023-10-13T13:56:48;37.20;32.90
19680;DHT22;9989;48.962;9.182;2023-10-13T13:59:13;37.50;33.00
19680;DHT22;9989;48.962;9.182;2023-10-13T14:01:45;37.80;32.80
19680;DHT22;9989;48.962;9.182;2023-10-13T14:04:11;38.10;32.30
19680;DHT22;9989;48.962;9.182;2023-10-13T14:06:39;38.30;31.70
19680;DHT22;9989;48.962;9.182;2023-10-13T14:09:05;38.40;31.80
19680;DHT22;9989;48.962;9.182;2023-10-13T14:11:59;38.60;31.60
19680;DHT22;9989;48.962;9.182;2023-10-13T14:14:43;38.70;31.60
19680;DHT22;9989;48.962;9.182;2023-10-13T14:17:24;38.70;31.30
19680;DHT22;9989;48.962;9.182;2023-10-13T14:19:56;38.50;31.50
19680;DHT22;9989;48.962;9.182;2023-10-13T14:22:22;38.60;31.60
19680;DHT22;9989;48.962;9.182;2023-10-13T14:24:50;38.80;31.30
19680;DHT22;9989;48.962;9.182;2023-10-13T14:27:23;39.00;31.40
19680;DHT22;9989;48.962;9.182;2023-10-13T14:29:51;39.30;30.90
19680;DHT22;9989;48.962;9.182;2023-10-13T14:32:21;39.40;30.60
19680;DHT22;9989;48.962;9.182;2023-10-13T14:34:50;39.00;30.80
19680;DHT22;9989;48.962;9.182;2023-10-13T14:37:20;38.80;30.90
19680;DHT22;9989;48.962;9.182;2023-10-13T14:39:52;38.40;31.30
19680;DHT22;9989;48.962;9.182;2023-10-13T14:42:26;38.10;31.90
19680;DHT22;9989;48.962;9.182;2023-10-13T14:44:52;38.00;32.00
19680;DHT22;9989;48.962;9.182;2023-10-13T14:47:22;37.90;31.90
19680;DHT22;9989;48.962;9.182;2023-10-13T14:49:54;37.70;31.60
19680;DHT22;9989;48.962;9.182;2023-10-13T14:52:23;37.40;31.30
19680;DHT22;9989;48.962;9.182;2023-10-13T14:54:49;37.00;31.20
19680;DHT22;9989;48.962;9.182;2023-10-13T14:57:21;36.60;31.70
19680;DHT22;9989;48.962;9.182;2023-10-13T14:59:51;36.10;32.00
19680;DHT22;9989;48.962;9.182;2023-10-13T15:02:17;35.90;32.40
19680;DHT22;9989;48.962;9.182;2023-10-13T15:04:42;35.80;32.30
19680;DHT22;9989;48.962;9.182;2023-10-13T15:07:08;35.70;32.80
19680;DHT22;9989;48.962;9.182;2023-10-13T15:09:34;35.80;32.70
19680;DHT22;9989;48.962;9.182;2023-10-13T15:11:59;35.80;32.90
19680;DHT22;9989;48.962;9.182;2023-10-13T15:14:30;35.80;33.30
19680;DHT22;9989;48.962;9.182;2023-10-13T15:16:58;35.80;32.70
19680;DHT22;9989;48.962;9.182;2023-10-13T15:19:26;35.60;32.80
19680;DHT22;9989;48.962;9.182;2023-10-13T15:21:51;35.50;33.40
19680;DHT22;9989;48.962;9.182;2023-10-13T15:24:18;35.40;33.70
19680;DHT22;9989;48.962;9.182;2023-10-13T15:26:47;35.20;33.70
19680;DHT22;9989;48.962;9.182;2023-10-13T15:29:17;34.90;33.90
19680;DHT22;9989;48.962;9.182;2023-10-13T15:31:46;34.60;34.20
19680;DHT22;9989;48.962;9.182;2023-10-13T15:34:24;34.30;34.50
19680;DHT22;9989;48.962;9.182;2023-10-13T15:36:52;33.90;35.00
19680;DHT22;9989;48.962;9.182;2023-10-13T15:39:19;33.70;35.40
19680;DHT22;9989;48.962;9.182;2023-10-13T15:41:49;33.20;36.20
19680;DHT22;9989;48.962;9.182;2023-10-13T15:44:19;32.70;36.40
19680;DHT22;9989;48.962;9.182;2023-10-13T15:46:46;32.10;37.20
19680;DHT22;9989;48.962;9.182;2023-10-13T15:49:16;31.60;38.10
19680;DHT22;9989;48.962;9.182;2023-10-13T15:51:42;31.20;38.70
19680;DHT22;9989;48.962;9.182;2023-10-13T15:54:08;30.80;39.40
19680;DHT22;9989;48.962;9.182;2023-10-13T15:56:43;30.40;40.10
19680;DHT22;9989;48.962;9.182;2023-10-13T15:59:09;30.10;40.20
19680;DHT22;9989;48.962;9.182;2023-10-13T16:01:35;29.90;40.80
19680;DHT22;9989;48.962;9.182;2023-10-13T16:04:00;29.70;41.20
19680;DHT22;9989;48.962;9.182;2023-10-13T16:06:42;29.50;41.60
19680;DHT22;9989;48.962;9.182;2023-10-13T16:09:12;29.30;41.90
19680;DHT22;9989;48.962;9.182;2023-10-13T16:11:44;29.10;42.40
19680;DHT22;9989;48.962;9.182;2023-10-13T16:14:12;29.00;42.70
19680;DHT22;9989;48.962;9.182;2023-10-13T16:16:41;28.90;43.00
19680;DHT22;9989;48.962;9.182;2023-10-13T16:19:10;28.70;43.30
19680;DHT22;9989;48.962;9.182;2023-10-13T16:21:36;28.60;44.10
19680;DHT22;9989;48.962;9.182;2023-10-13T16:24:05;28.50;43.90
19680;DHT22;9989;48.962;9.182;2023-10-13T16:26:31;28.40;44.30
19680;DHT22;9989;48.962;9.182;2023-10-13T16:28:57;28.30;44.50
19680;DHT22;9989;48.962;9.182;2023-10-13T16:31:26;28.20;44.90
19680;DHT22;9989;48.962;9.182;2023-10-13T16:33:54;28.10;45.30
19680;DHT22;9989;48.962;9.182;2023-10-13T16:36:22;28.00;45.60
19680;DHT22;9989;48.962;9.182;2023-10-13T16:38:48;27.80;46.00
19680;DHT22;9989;48.962;9.182;2023-10-13T16:41:14;27.70;46.00
19680;DHT22;9989;48.962;9.182;2023-10-13T16:43:40;27.60;45.80